createdAt,value
2019-02-22T00:01:04.589Z,80.55
2019-02-22T00:03:31.042Z,80.69
2019-02-22T00:05:57.198Z,80.67
2019-02-22T00:08:23.541Z,80.65
2019-02-22T00:10:49.972Z,81.16
2019-02-22T00:13:16.295Z,81.36
2019-02-22T00:15:43.708Z,81.07
2019-02-22T00:18:10.049Z,80.83
2019-02-22T00:20:36.170Z,80.88
2019-02-22T00:23:02.524Z,80.67
2019-02-22T00:25:28.900Z,80.53
2019-02-22T00:27:55.211Z,80.50
2019-02-22T00:30:21.682Z,80.48
2019-02-22T00:32:48.104Z,80.49
2019-02-22T00:35:14.662Z,80.73
2019-02-22T00:37:41.976Z,80.96
2019-02-22T00:40:08.293Z,80.92
2019-02-22T00:42:34.476Z,80.79
2019-02-22T00:45:00.730Z,80.62
2019-02-22T00:47:26.846Z,80.53
2019-02-22T00:49:53.154Z,80.41
2019-02-22T00:52:19.408Z,80.44
2019-02-22T00:54:45.681Z,80.32
2019-02-22T00:57:12.063Z,80.14
2019-02-22T00:59:38.314Z,79.99
2019-02-22T01:02:04.394Z,80.11
2019-02-22T01:04:30.593Z,80.10
2019-02-22T01:06:56.827Z,80.46
2019-02-22T01:09:23.082Z,80.39
2019-02-22T01:11:49.199Z,80.27
2019-02-22T01:14:15.347Z,79.97
2019-02-22T01:16:41.551Z,79.89
2019-02-22T01:19:07.675Z,79.80
2019-02-22T01:21:33.985Z,79.82
2019-02-22T01:24:00.714Z,79.68
2019-02-22T01:26:27.139Z,79.60
2019-02-22T01:28:53.240Z,79.58
2019-02-22T01:31:19.495Z,79.65
2019-02-22T01:33:46.909Z,79.67
2019-02-22T01:36:13.114Z,80.21
2019-02-22T01:38:39.363Z,80.25
2019-02-22T01:41:05.643Z,80.32
2019-02-22T01:43:33.474Z,80.17
2019-02-22T01:45:59.873Z,79.91
2019-02-22T01:48:26.187Z,79.76
2019-02-22T01:50:52.318Z,79.55
2019-02-22T01:53:18.465Z,79.78
2019-02-22T01:55:44.715Z,79.81
2019-02-22T01:58:11.030Z,79.71
2019-02-22T02:00:37.363Z,79.92
2019-02-22T02:03:03.924Z,80.04
2019-02-22T02:05:30.064Z,79.97
2019-02-22T02:07:56.279Z,80.23
2019-02-22T02:10:22.510Z,80.31
2019-02-22T02:12:48.972Z,80.58
2019-02-22T02:15:15.190Z,80.58
2019-02-22T02:17:41.460Z,80.54
2019-02-22T02:20:08.290Z,80.17
2019-02-22T02:22:34.515Z,80.05
2019-02-22T02:25:00.741Z,80.51
2019-02-22T02:27:26.925Z,80.64
2019-02-22T02:29:53.044Z,80.24
2019-02-22T02:32:19.353Z,80.03
2019-02-22T02:34:45.683Z,80.13
2019-02-22T02:37:11.768Z,80.05
2019-02-22T02:39:38.036Z,79.90
2019-02-22T02:42:04.261Z,80.09
2019-02-22T02:44:30.392Z,80.05
2019-02-22T02:46:56.767Z,80.08
2019-02-22T02:49:22.983Z,79.95
2019-02-22T02:51:49.242Z,79.73
2019-02-22T02:54:15.529Z,79.82
2019-02-22T02:56:41.849Z,79.79
2019-02-22T02:59:07.979Z,79.79
2019-02-22T03:01:34.370Z,79.39
2019-02-22T03:04:01.759Z,79.17
2019-02-22T03:06:44.981Z,79.42
2019-02-22T03:09:11.130Z,78.90
2019-02-22T03:11:37.559Z,79.06
2019-02-22T03:14:04.310Z,79.17
2019-02-22T03:16:30.618Z,79.01
2019-02-22T03:18:56.751Z,78.97
2019-02-22T03:21:23.071Z,79.13
2019-02-22T03:23:49.213Z,79.01
2019-02-22T03:26:15.389Z,79.08
2019-02-22T03:28:41.870Z,79.04
2019-02-22T03:31:08.069Z,78.78
2019-02-22T03:33:34.184Z,78.75
2019-02-22T03:36:00.298Z,79.59
2019-02-22T03:38:26.490Z,80.29
2019-02-22T03:40:52.627Z,80.52
2019-02-22T03:43:18.886Z,80.47
2019-02-22T03:45:45.052Z,80.73
2019-02-22T03:48:11.228Z,80.67
2019-02-22T03:50:37.438Z,80.46
2019-02-22T03:53:11.674Z,80.18
2019-02-22T03:55:37.906Z,80.32
2019-02-22T03:58:04.261Z,80.47
2019-02-22T04:00:30.565Z,80.28
2019-02-22T04:02:56.773Z,80.19
2019-02-22T04:05:22.895Z,80.03
2019-02-22T04:07:49.094Z,79.75
2019-02-22T04:10:15.227Z,79.81
2019-02-22T04:12:41.585Z,79.83
2019-02-22T04:15:08.673Z,80.53
2019-02-22T04:17:35.060Z,81.16
2019-02-22T04:20:01.533Z,81.30
2019-02-22T04:22:27.839Z,81.30
2019-02-22T04:24:54.053Z,81.07
2019-02-22T04:27:20.174Z,81.40
2019-02-22T04:29:46.323Z,81.81
2019-02-22T04:32:12.517Z,81.93
2019-02-22T04:34:38.795Z,81.84
2019-02-22T04:37:05.022Z,81.71
2019-02-22T04:39:31.233Z,81.84
2019-02-22T04:41:58.359Z,81.70
2019-02-22T04:44:24.804Z,81.29
2019-02-22T04:46:51.010Z,81.31
2019-02-22T04:49:17.285Z,81.18
2019-02-22T04:51:43.454Z,81.29
2019-02-22T04:54:09.550Z,81.25
2019-02-22T04:56:35.807Z,81.17
2019-02-22T04:59:02.154Z,80.74
2019-02-22T05:01:28.520Z,80.36
2019-02-22T05:03:54.825Z,79.99
2019-02-22T05:06:21.366Z,79.98
2019-02-22T05:08:47.743Z,79.78
2019-02-22T05:11:13.876Z,79.76
2019-02-22T05:13:40.199Z,79.59
2019-02-22T05:16:06.466Z,79.71
2019-02-22T05:18:32.748Z,79.76
2019-02-22T05:20:58.923Z,79.84
2019-02-22T05:23:25.152Z,79.62
2019-02-22T05:25:51.393Z,79.84
2019-02-22T05:28:17.484Z,80.12
2019-02-22T05:30:43.900Z,80.28
2019-02-22T05:33:10.364Z,80.19
2019-02-22T05:35:36.563Z,80.39
2019-02-22T05:38:02.882Z,80.45
2019-02-22T05:40:29.061Z,80.80
2019-02-22T05:42:55.255Z,80.83
2019-02-22T05:45:21.431Z,80.91
2019-02-22T05:47:47.607Z,80.50
2019-02-22T05:50:13.887Z,80.19
2019-02-22T05:52:40.139Z,80.03
2019-02-22T05:55:06.271Z,80.15
2019-02-22T05:57:32.626Z,79.89
2019-02-22T05:59:59.031Z,79.57
2019-02-22T06:02:25.357Z,79.61
2019-02-22T06:04:51.507Z,80.56
2019-02-22T06:07:17.768Z,80.72
2019-02-22T06:09:44.055Z,80.81
2019-02-22T06:12:10.557Z,81.43
2019-02-22T06:14:36.903Z,81.96
2019-02-22T06:17:13.957Z,82.15
2019-02-22T06:19:31.245Z,82.24
2019-02-22T06:21:57.639Z,82.08
2019-02-22T06:24:23.997Z,82.07
2019-02-22T06:26:50.221Z,81.97
2019-02-22T06:29:16.558Z,81.68
2019-02-22T06:31:42.959Z,81.30
2019-02-22T06:34:09.366Z,81.31
2019-02-22T06:36:35.648Z,81.24
2019-02-22T06:39:02.168Z,81.25
2019-02-22T06:41:30.101Z,81.24
2019-02-22T06:43:57.327Z,81.18
2019-02-22T06:46:23.573Z,81.45
2019-02-22T06:48:49.817Z,81.33
2019-02-22T06:51:15.915Z,81.24
2019-02-22T06:53:42.332Z,81.39
2019-02-22T06:56:08.617Z,81.21
2019-02-22T06:58:35.402Z,81.46
2019-02-22T07:01:10.327Z,81.18
2019-02-22T07:03:36.576Z,81.17
2019-02-22T07:06:05.485Z,80.96
2019-02-22T07:08:31.212Z,81.02
2019-02-22T07:10:59.433Z,80.66
2019-02-22T07:13:27.700Z,80.65
2019-02-22T07:15:54.133Z,80.44
2019-02-22T07:18:20.351Z,79.92
2019-02-22T07:20:46.671Z,79.29
2019-02-22T07:23:17.388Z,79.06
2019-02-22T07:25:43.678Z,78.98
2019-02-22T07:28:09.995Z,79.37
2019-02-22T07:30:36.710Z,79.51
2019-02-22T07:33:09.669Z,79.93
2019-02-22T07:35:47.341Z,79.43
2019-02-22T07:38:14.055Z,79.23
2019-02-22T07:40:40.377Z,79.91
2019-02-22T07:43:08.251Z,79.75
2019-02-22T07:45:35.388Z,80.06
2019-02-22T07:50:41.604Z,80.42
2019-02-22T07:53:17.822Z,80.09
2019-02-22T07:58:18.412Z,80.06
2019-02-22T08:00:44.836Z,79.97
2019-02-22T08:03:11.278Z,79.79
2019-02-22T08:05:37.532Z,79.51
2019-02-22T08:08:06.240Z,79.15
2019-02-22T08:10:37.717Z,78.62
2019-02-22T08:13:19.177Z,78.75
2019-02-22T08:15:51.971Z,78.34
2019-02-22T08:18:18.519Z,78.39
2019-02-22T08:20:44.974Z,78.66
2019-02-22T08:23:11.153Z,79.00
2019-02-22T08:25:38.694Z,78.69
2019-02-22T08:28:12.276Z,77.48
2019-02-22T08:30:38.722Z,77.92
2019-02-22T08:33:06.295Z,77.83
2019-02-22T08:35:32.728Z,77.80
2019-02-22T08:37:59.078Z,77.99
2019-02-22T08:40:25.196Z,77.82
2019-02-22T08:42:51.589Z,77.90
2019-02-22T08:45:17.918Z,77.89
2019-02-22T08:47:44.131Z,77.56
2019-02-22T08:50:23.960Z,77.25
2019-02-22T08:52:50.802Z,77.75
2019-02-22T08:55:17.125Z,76.89
2019-02-22T08:57:43.545Z,77.26
2019-02-22T09:00:11.293Z,77.51
2019-02-22T09:02:37.753Z,77.48
2019-02-22T09:05:06.202Z,77.60
2019-02-22T09:07:32.662Z,77.42
2019-02-22T09:09:58.869Z,77.81
2019-02-22T09:12:25.092Z,77.37
2019-02-22T09:14:51.589Z,77.55
2019-02-22T09:17:29.937Z,77.87
2019-02-22T09:19:56.233Z,77.03
2019-02-22T09:22:23.352Z,77.67
2019-02-22T09:24:49.843Z,77.58
2019-02-22T09:27:16.125Z,77.34
2019-02-22T09:29:42.471Z,77.34
2019-02-22T09:32:08.745Z,76.69
2019-02-22T09:34:35.125Z,76.68
2019-02-22T09:37:07.729Z,76.63
2019-02-22T09:39:34.088Z,76.96
2019-02-22T09:42:00.208Z,77.03
2019-02-22T09:44:32.876Z,76.79
2019-02-22T09:46:59.121Z,76.42
2019-02-22T09:49:25.390Z,76.58
2019-02-22T09:51:56.757Z,76.93
2019-02-22T09:54:22.969Z,77.17
2019-02-22T09:56:50.926Z,77.48
2019-02-22T09:59:17.291Z,77.79
2019-02-22T10:01:45.731Z,77.07
2019-02-22T10:04:12.008Z,77.40
2019-02-22T10:06:38.380Z,77.77
2019-02-22T10:09:05.204Z,77.61
2019-02-22T10:11:32.499Z,77.76
2019-02-22T10:14:06.385Z,77.64
2019-02-22T10:16:31.818Z,77.57
2019-02-22T10:18:58.030Z,77.23
2019-02-22T10:21:24.246Z,76.61
2019-02-22T10:23:50.625Z,77.29
2019-02-22T10:26:16.953Z,77.12
2019-02-22T10:28:43.329Z,77.69
2019-02-22T10:31:09.581Z,77.28
2019-02-22T10:33:36.929Z,76.87
2019-02-22T10:36:06.690Z,76.46
2019-02-22T10:38:35.676Z,76.53
2019-02-22T10:41:05.082Z,76.64
2019-02-22T10:43:31.280Z,76.84
2019-02-22T10:45:57.515Z,76.82
2019-02-22T10:48:23.613Z,77.14
2019-02-22T10:50:49.832Z,76.84
2019-02-22T10:53:16.098Z,76.88
2019-02-22T10:55:42.349Z,76.95
2019-02-22T10:58:13.755Z,77.74
2019-02-22T11:00:39.882Z,78.00
2019-02-22T11:03:06.164Z,77.29
2019-02-22T11:05:32.697Z,77.33
2019-02-22T11:07:58.890Z,77.23
2019-02-22T11:10:27.479Z,77.62
2019-02-22T11:12:53.678Z,77.52
2019-02-22T11:15:20.036Z,77.20
2019-02-22T11:17:46.357Z,77.22
2019-02-22T11:20:13.928Z,77.68
2019-02-22T11:22:40.185Z,77.75
2019-02-22T11:25:11.030Z,78.49
2019-02-22T11:27:37.359Z,78.80
2019-02-22T11:30:17.903Z,78.81
2019-02-22T11:35:16.172Z,78.71
2019-02-22T11:37:42.380Z,78.70
2019-02-22T11:40:12.159Z,78.71
2019-02-22T11:42:38.575Z,78.65
2019-02-22T11:45:07.891Z,78.85
2019-02-22T11:47:34.314Z,78.37
2019-02-22T11:50:05.085Z,78.73
2019-02-22T11:52:31.428Z,78.78
2019-02-22T11:54:57.778Z,78.60
2019-02-22T11:57:24.071Z,78.65
2019-02-22T11:59:50.535Z,79.35
2019-02-22T12:02:16.772Z,78.91
2019-02-22T12:04:43.223Z,79.08
2019-02-22T12:07:09.499Z,79.15
2019-02-22T12:09:35.625Z,79.43
2019-02-22T12:12:08.487Z,79.94
2019-02-22T12:14:34.839Z,80.22
2019-02-22T12:17:01.189Z,79.72
2019-02-22T12:19:27.504Z,79.73
2019-02-22T12:21:53.640Z,79.41
2019-02-22T12:24:19.783Z,79.51
2019-02-22T12:26:45.865Z,79.42
2019-02-22T12:29:12.119Z,79.41
2019-02-22T12:31:38.524Z,79.34
2019-02-22T12:34:04.764Z,78.89
2019-02-22T12:36:30.974Z,79.62
2019-02-22T12:38:57.281Z,79.73
2019-02-22T12:41:23.569Z,79.77
2019-02-22T12:43:49.773Z,78.97
2019-02-22T12:46:15.987Z,78.86
2019-02-22T12:48:42.264Z,79.27
2019-02-22T12:51:08.500Z,78.51
2019-02-22T12:53:34.616Z,77.69
2019-02-22T12:56:00.824Z,78.47
2019-02-22T12:58:27.134Z,76.87
2019-02-22T13:00:53.472Z,77.39
2019-02-22T13:03:19.811Z,75.71
2019-02-22T13:05:45.918Z,75.68
2019-02-22T13:08:12.366Z,75.07
2019-02-22T13:10:38.750Z,75.37
2019-02-22T13:13:05.125Z,75.35
2019-02-22T13:15:31.369Z,75.40
2019-02-22T13:17:57.518Z,74.88
2019-02-22T13:20:24.030Z,74.47
2019-02-22T13:22:51.568Z,74.46
2019-02-22T13:25:17.994Z,74.44
2019-02-22T13:27:44.335Z,73.87
2019-02-22T13:30:13.482Z,74.08
2019-02-22T13:32:39.855Z,73.64
2019-02-22T13:35:06.385Z,73.77
2019-02-22T13:37:32.934Z,73.20
2019-02-22T13:39:59.385Z,72.81
2019-02-22T13:42:25.726Z,73.09
2019-02-22T13:44:51.934Z,73.67
2019-02-22T13:47:18.505Z,74.07
2019-02-22T13:49:44.694Z,72.31
2019-02-22T13:52:10.996Z,72.42
2019-02-22T13:54:37.219Z,72.80
2019-02-22T13:57:03.567Z,72.41
2019-02-22T13:59:29.936Z,72.29
2019-02-22T14:01:56.259Z,71.84
2019-02-22T14:04:22.391Z,72.29
2019-02-22T14:06:48.729Z,71.96
2019-02-22T14:09:15.176Z,71.62
2019-02-22T14:11:41.566Z,71.27
2019-02-22T14:14:07.974Z,71.65
2019-02-22T14:16:34.488Z,72.32
2019-02-22T14:19:00.831Z,71.65
2019-02-22T14:21:26.966Z,71.20
2019-02-22T14:23:53.239Z,71.32
2019-02-22T14:26:19.591Z,70.77
2019-02-22T14:28:45.859Z,70.75
2019-02-22T14:31:12.208Z,70.74
2019-02-22T14:33:39.414Z,70.69
2019-02-22T14:36:05.702Z,71.33
2019-02-22T14:38:32.009Z,71.00
2019-02-22T14:40:58.318Z,70.84
2019-02-22T14:43:24.595Z,70.92
2019-02-22T14:45:53.222Z,70.88
2019-02-22T14:48:18.933Z,70.85
2019-02-22T14:50:45.367Z,70.54
2019-02-22T14:53:19.086Z,70.23
2019-02-22T14:55:39.683Z,69.99
2019-02-22T14:58:06.040Z,69.79
2019-02-22T15:00:32.352Z,69.24
2019-02-22T15:02:58.731Z,69.09
2019-02-22T15:05:25.065Z,68.20
2019-02-22T15:07:51.482Z,68.34
2019-02-22T15:10:19.159Z,67.43
2019-02-22T15:12:45.506Z,67.29
2019-02-22T15:15:13.388Z,67.25
2019-02-22T15:17:41.587Z,67.76
2019-02-22T15:20:08.011Z,67.09
2019-02-22T15:22:34.150Z,67.58
2019-02-22T15:25:00.429Z,67.60
2019-02-22T15:27:26.581Z,66.70
2019-02-22T15:29:52.971Z,66.88
2019-02-22T15:32:19.220Z,67.74
2019-02-22T15:34:45.440Z,67.19
2019-02-22T15:37:11.766Z,67.86
2019-02-22T15:39:38.222Z,67.10
2019-02-22T15:42:04.631Z,67.72
2019-02-22T15:44:30.841Z,68.02
2019-02-22T15:46:57.194Z,67.84
2019-02-22T15:49:23.500Z,67.89
2019-02-22T15:51:49.704Z,67.90
2019-02-22T15:54:16.036Z,68.54
2019-02-22T15:56:42.178Z,68.16
2019-02-22T15:59:08.899Z,67.06
2019-02-22T16:01:35.111Z,66.67
2019-02-22T16:04:03.385Z,66.17
2019-02-22T16:06:32.221Z,66.41
2019-02-22T16:08:58.089Z,66.95
2019-02-22T16:11:25.438Z,67.04
2019-02-22T16:13:51.804Z,66.85
2019-02-22T16:16:23.260Z,66.95
2019-02-22T16:18:46.305Z,66.87
2019-02-22T16:21:12.422Z,67.19
2019-02-22T16:23:38.933Z,66.93
2019-02-22T16:26:05.180Z,67.57
2019-02-22T16:28:31.577Z,67.21
2019-02-22T16:30:57.796Z,67.47
2019-02-22T16:33:24.062Z,67.98
2019-02-22T16:35:50.284Z,68.21
2019-02-22T16:38:16.521Z,68.60
2019-02-22T16:40:42.855Z,68.04
2019-02-22T16:43:09.110Z,68.25
2019-02-22T16:45:35.550Z,68.42
2019-02-22T16:48:01.785Z,68.38
2019-02-22T16:50:28.106Z,68.60
2019-02-22T16:52:54.420Z,68.66
2019-02-22T16:55:20.682Z,68.71
2019-02-22T16:57:47.053Z,69.10
2019-02-22T17:00:15.061Z,69.38
2019-02-22T17:02:41.428Z,69.26
2019-02-22T17:05:09.811Z,69.37
2019-02-22T17:07:36.163Z,68.94
2019-02-22T17:10:05.047Z,69.07
2019-02-22T17:12:31.461Z,69.44
2019-02-22T17:14:57.611Z,69.76
2019-02-22T17:17:23.963Z,70.12
2019-02-22T17:19:50.164Z,69.38
2019-02-22T17:22:16.300Z,69.54
2019-02-22T17:24:42.498Z,69.40
2019-02-22T17:27:08.737Z,69.74
2019-02-22T17:29:34.991Z,69.98
2019-02-22T17:32:01.423Z,69.42
2019-02-22T17:34:27.904Z,69.37
2019-02-22T17:36:54.295Z,69.77
2019-02-22T17:39:20.703Z,69.89
2019-02-22T17:41:47.087Z,69.43
2019-02-22T17:44:13.457Z,69.59
2019-02-22T17:46:39.689Z,69.61
2019-02-22T17:49:06.167Z,70.02
2019-02-22T17:51:32.303Z,69.75
2019-02-22T17:53:58.718Z,70.41
2019-02-22T17:56:25.059Z,70.56
2019-02-22T17:58:51.426Z,69.87
2019-02-22T18:01:17.690Z,69.94
2019-02-22T18:03:43.938Z,69.91
2019-02-22T18:06:10.140Z,69.82
2019-02-22T18:08:36.508Z,69.59
2019-02-22T18:11:02.859Z,69.97
2019-02-22T18:13:29.097Z,70.12
2019-02-22T18:15:55.288Z,70.19
2019-02-22T18:18:21.777Z,69.90
2019-02-22T18:20:49.506Z,70.11
2019-02-22T18:23:15.708Z,69.83
2019-02-22T18:25:42.154Z,69.90
2019-02-22T18:28:08.483Z,70.07
2019-02-22T18:30:34.762Z,70.21
2019-02-22T18:33:01.125Z,70.17
2019-02-22T18:35:27.506Z,70.20
2019-02-22T18:37:53.652Z,70.02
2019-02-22T18:40:21.316Z,70.39
2019-02-22T18:42:47.703Z,70.27
2019-02-22T18:45:14.518Z,69.95
2019-02-22T18:47:40.755Z,69.58
2019-02-22T18:50:10.763Z,69.74
2019-02-22T18:52:37.335Z,69.60
2019-02-22T18:55:09.941Z,69.83
2019-02-22T18:57:36.384Z,69.67
2019-02-22T19:00:08.665Z,69.78
2019-02-22T19:02:34.894Z,70.12
2019-02-22T19:05:13.685Z,69.51
2019-02-22T19:07:40.126Z,69.79
2019-02-22T19:10:08.943Z,69.80
2019-02-22T19:12:35.326Z,69.91
2019-02-22T19:15:06.879Z,70.23
2019-02-22T19:17:37.250Z,70.28
2019-02-22T19:20:13.396Z,70.18
2019-02-22T19:22:39.616Z,70.39
2019-02-22T19:25:07.234Z,70.54
2019-02-22T19:27:33.519Z,70.57
2019-02-22T19:29:59.787Z,70.59
2019-02-22T19:32:26.169Z,70.66
2019-02-22T19:34:52.330Z,70.59
2019-02-22T19:37:18.486Z,71.16
2019-02-22T19:39:44.730Z,71.25
2019-02-22T19:42:11.086Z,71.36
2019-02-22T19:44:37.325Z,71.42
2019-02-22T19:47:05.035Z,71.70
2019-02-22T19:49:31.341Z,71.89
2019-02-22T19:51:57.615Z,71.85
2019-02-22T19:54:23.812Z,72.58
2019-02-22T19:56:50.236Z,72.40
2019-02-22T19:59:16.619Z,72.56
2019-02-22T20:01:43.060Z,72.78
2019-02-22T20:04:09.631Z,72.66
2019-02-22T20:06:35.885Z,72.67
2019-02-22T20:09:09.472Z,72.80
2019-02-22T20:11:37.225Z,72.73
2019-02-22T20:14:06.150Z,72.57
2019-02-22T20:16:32.449Z,72.79
2019-02-22T20:18:58.692Z,72.54
2019-02-22T20:21:24.802Z,73.27
2019-02-22T20:23:51.052Z,73.31
2019-02-22T20:26:18.356Z,73.10
2019-02-22T20:28:47.223Z,72.93
2019-02-22T20:31:20.373Z,73.44
2019-02-22T20:33:44.010Z,73.36
2019-02-22T20:36:10.625Z,73.07
2019-02-22T20:38:38.865Z,73.45
2019-02-22T20:41:05.591Z,73.49
2019-02-22T20:43:31.949Z,73.80
2019-02-22T20:45:58.239Z,74.32
2019-02-22T20:48:24.353Z,74.02
2019-02-22T20:50:50.772Z,74.00
2019-02-22T20:53:17.584Z,73.66
2019-02-22T20:55:44.257Z,73.36
2019-02-22T20:58:10.807Z,73.76
2019-02-22T21:00:39.833Z,74.05
2019-02-22T21:03:16.229Z,73.81
2019-02-22T21:05:53.376Z,73.58
2019-02-22T21:08:19.702Z,74.27
2019-02-22T21:10:46.276Z,74.10
2019-02-22T21:13:18.417Z,74.03
2019-02-22T21:15:44.709Z,74.34
2019-02-22T21:18:16.226Z,74.35
2019-02-22T21:20:40.369Z,74.54
2019-02-22T21:23:06.624Z,74.10
2019-02-22T21:25:32.813Z,73.84
2019-02-22T21:27:59.319Z,74.13
2019-02-22T21:30:27.014Z,74.46
2019-02-22T21:32:53.239Z,74.60
2019-02-22T21:35:19.510Z,74.60
2019-02-22T21:37:45.875Z,74.41
2019-02-22T21:40:13.017Z,74.37
2019-02-22T21:42:39.381Z,74.34
2019-02-22T21:45:15.481Z,74.49
2019-02-22T21:47:53.763Z,74.53
2019-02-22T21:50:12.692Z,74.12
2019-02-22T21:52:41.671Z,74.41
2019-02-22T21:55:16.429Z,74.54
2019-02-22T21:57:42.879Z,74.68
2019-02-22T22:00:23.589Z,74.33
2019-02-22T22:02:49.942Z,74.72
2019-02-22T22:05:16.358Z,74.71
2019-02-22T22:07:42.639Z,74.71
2019-02-22T22:10:13.217Z,74.58
2019-02-22T22:12:39.538Z,75.38
2019-02-22T22:15:11.433Z,75.22
2019-02-22T22:17:37.694Z,75.04
2019-02-22T22:20:07.885Z,75.13
2019-02-22T22:22:35.339Z,75.34
2019-02-22T22:25:03.195Z,75.59
2019-02-22T22:27:29.441Z,75.34
2019-02-22T22:29:55.590Z,75.36
2019-02-22T22:32:21.801Z,75.48
2019-02-22T22:34:48.143Z,75.32
2019-02-22T22:37:14.378Z,75.30
2019-02-22T22:39:40.700Z,75.48
2019-02-22T22:42:07.030Z,75.36
2019-02-22T22:44:33.259Z,75.50
2019-02-22T22:46:59.351Z,75.46
2019-02-22T22:49:25.588Z,75.78
2019-02-22T22:51:51.850Z,75.61
2019-02-22T22:54:18.187Z,75.64
2019-02-22T22:56:44.451Z,75.79
2019-02-22T22:59:10.652Z,75.80
2019-02-22T23:01:37.336Z,75.77
2019-02-22T23:04:04.827Z,75.47
2019-02-22T23:06:31.136Z,75.63
2019-02-22T23:08:57.420Z,75.56
2019-02-22T23:11:23.701Z,75.87
2019-02-22T23:13:49.967Z,75.95
2019-02-22T23:16:16.284Z,76.23
2019-02-22T23:18:42.396Z,76.05
2019-02-22T23:21:08.894Z,75.99
2019-02-22T23:23:35.187Z,76.31
2019-02-22T23:26:01.707Z,76.15
2019-02-22T23:28:27.897Z,76.14
2019-02-22T23:30:54.113Z,76.32
2019-02-22T23:33:20.495Z,76.20
2019-02-22T23:35:46.604Z,75.68
2019-02-22T23:38:13.111Z,75.81
2019-02-22T23:40:39.312Z,75.99
2019-02-22T23:43:05.419Z,75.65
2019-02-22T23:45:31.906Z,75.72
2019-02-22T23:47:58.071Z,76.15
2019-02-22T23:50:24.169Z,76.09
2019-02-22T23:52:50.361Z,75.74
2019-02-22T23:55:17.631Z,75.61
2019-02-22T23:57:43.816Z,75.47
